createdAt,value
2022-09-01T00:04:52.478Z,15.02
2022-09-01T00:09:56.627Z,15.00
2022-09-01T00:15:00.787Z,15.08
2022-09-01T00:20:04.948Z,15.18
2022-09-01T00:25:09.134Z,15.24
2022-09-01T00:30:13.245Z,15.31
2022-09-01T00:35:17.413Z,15.32
2022-09-01T00:40:21.726Z,15.26
2022-09-01T00:45:25.730Z,15.24
2022-09-01T00:50:29.902Z,15.16
2022-09-01T00:55:32.692Z,15.14
2022-09-01T01:00:36.667Z,15.11
2022-09-01T01:05:40.498Z,15.03
2022-09-01T01:10:44.648Z,14.86
2022-09-01T01:15:48.847Z,14.62
2022-09-01T01:20:53.006Z,14.44
2022-09-01T01:25:57.162Z,14.24
2022-09-01T01:31:01.621Z,14.08
2022-09-01T01:36:05.476Z,13.93
2022-09-01T01:41:09.652Z,13.83
2022-09-01T01:46:13.795Z,13.64
2022-09-01T01:51:17.963Z,13.50
2022-09-01T01:56:22.111Z,13.45
2022-09-01T02:01:26.317Z,13.42
2022-09-01T02:06:30.433Z,13.39
2022-09-01T02:11:34.571Z,13.28
2022-09-01T02:16:38.821Z,13.16
2022-09-01T02:21:42.893Z,13.11
2022-09-01T02:26:47.094Z,13.04
2022-09-01T02:31:51.240Z,12.98
2022-09-01T02:36:55.390Z,12.99
2022-09-01T02:41:57.656Z,12.95
2022-09-01T02:47:02.001Z,12.92
2022-09-01T02:52:04.073Z,12.88
2022-09-01T02:57:08.273Z,12.87
2022-09-01T03:02:10.560Z,12.79
2022-09-01T03:07:14.662Z,12.70
2022-09-01T03:12:19.210Z,12.60
2022-09-01T03:17:23.026Z,12.50
2022-09-01T03:22:27.149Z,12.37
2022-09-01T03:27:31.341Z,12.21
2022-09-01T03:32:35.495Z,12.13
2022-09-01T03:37:39.674Z,12.05
2022-09-01T03:42:43.812Z,12.01
2022-09-01T03:47:47.942Z,11.94
2022-09-01T03:52:52.138Z,11.87
2022-09-01T03:57:56.318Z,11.83
2022-09-01T04:03:00.499Z,11.81
2022-09-01T04:08:04.632Z,11.76
2022-09-01T04:13:08.785Z,11.73
2022-09-01T04:18:12.921Z,11.76
2022-09-01T04:23:17.101Z,11.80
2022-09-01T04:28:21.388Z,11.80
2022-09-01T04:33:25.399Z,11.86
2022-09-01T04:38:29.598Z,11.83
2022-09-01T04:43:33.725Z,11.80
2022-09-01T04:48:36.073Z,11.84
2022-09-01T04:53:40.154Z,11.78
2022-09-01T04:58:42.444Z,11.74
2022-09-01T05:03:46.591Z,11.72
2022-09-01T05:08:50.768Z,11.67
2022-09-01T05:13:54.908Z,11.63
2022-09-01T05:18:59.100Z,11.55
2022-09-01T05:24:03.236Z,11.53
2022-09-01T05:29:07.436Z,11.60
2022-09-01T05:34:13.982Z,11.66
2022-09-01T05:39:15.768Z,11.68
2022-09-01T05:44:19.916Z,11.77
2022-09-01T05:49:24.044Z,11.79
2022-09-01T05:54:28.190Z,11.92
2022-09-01T05:59:32.354Z,12.05
2022-09-01T06:04:36.538Z,12.25
2022-09-01T06:09:40.715Z,12.46
2022-09-01T06:14:44.840Z,12.66
2022-09-01T06:19:49.056Z,12.90
2022-09-01T06:24:55.687Z,13.20
2022-09-01T06:29:57.397Z,13.54
2022-09-01T06:40:05.675Z,14.02
2022-09-01T06:45:09.838Z,14.31
2022-09-01T06:50:12.178Z,14.59
2022-09-01T06:55:16.348Z,14.96
2022-09-01T07:00:20.419Z,15.25
2022-09-01T07:10:28.733Z,15.71
2022-09-01T07:21:02.366Z,16.29
2022-09-01T07:26:00.403Z,16.57
2022-09-01T07:30:48.628Z,16.75
2022-09-01T07:45:58.647Z,17.36
2022-09-01T07:56:06.150Z,17.81
2022-09-01T08:01:10.312Z,18.12
2022-09-01T08:06:14.482Z,18.38
2022-09-01T08:11:25.233Z,18.62
2022-09-01T08:16:22.818Z,18.92
2022-09-01T08:21:26.984Z,19.14
2022-09-01T08:26:31.113Z,19.32
2022-09-01T08:31:35.336Z,19.55
2022-09-01T08:36:40.603Z,19.86
2022-09-01T08:41:46.785Z,20.05
2022-09-01T08:46:44.083Z,20.24
2022-09-01T08:51:48.157Z,20.30
2022-09-01T08:56:50.438Z,20.49
2022-09-01T09:01:54.839Z,20.62
2022-09-01T09:06:58.703Z,20.88
2022-09-01T09:12:03.590Z,21.04
2022-09-01T09:22:11.433Z,21.39
2022-09-01T09:27:16.371Z,21.41
2022-09-01T09:32:24.011Z,21.36
2022-09-01T09:37:23.678Z,21.60
2022-09-01T09:42:33.986Z,21.63
2022-09-01T09:47:43.063Z,21.73
2022-09-01T09:52:36.160Z,21.90
2022-09-01T09:57:40.300Z,22.07
2022-09-01T10:02:44.513Z,21.81
2022-09-01T10:07:48.627Z,22.09
2022-09-01T10:12:52.805Z,22.43
2022-09-01T10:18:13.954Z,22.82
2022-09-01T10:23:01.102Z,22.80
2022-09-01T10:28:05.296Z,23.13
2022-09-01T10:33:19.077Z,23.21
2022-09-01T10:38:13.733Z,23.47
2022-09-01T10:43:17.741Z,23.40
2022-09-01T10:48:30.284Z,23.53
2022-09-01T10:53:26.911Z,23.66
2022-09-01T11:03:34.111Z,23.98
2022-09-01T11:18:45.035Z,23.95
2022-09-01T11:23:49.106Z,24.26
2022-09-01T11:28:53.310Z,24.49
2022-09-01T11:33:57.455Z,24.41
2022-09-01T11:39:01.620Z,24.40
2022-09-01T11:44:05.769Z,24.50
2022-09-01T11:49:09.911Z,24.37
2022-09-01T11:54:14.064Z,24.22
2022-09-01T11:59:16.342Z,24.47
2022-09-01T12:04:27.520Z,24.02
2022-09-01T12:09:38.687Z,24.17
2022-09-01T12:15:05.311Z,24.34
2022-09-01T12:20:01.018Z,24.65
2022-09-01T12:25:12.188Z,24.45
2022-09-01T12:30:23.401Z,24.04
2022-09-01T12:35:25.626Z,23.96
2022-09-01T12:40:30.545Z,24.44
2022-09-01T12:45:34.297Z,24.18
2022-09-01T12:50:38.084Z,24.70
2022-09-01T12:55:48.645Z,24.84
2022-09-01T13:00:46.413Z,25.00
2022-09-01T13:05:51.042Z,25.16
2022-09-01T13:10:54.695Z,25.39
2022-09-01T13:15:58.926Z,25.36
2022-09-01T13:21:03.049Z,25.43
2022-09-01T13:26:07.195Z,24.97
2022-09-01T13:31:33.947Z,24.95
2022-09-01T13:36:44.422Z,25.31
2022-09-01T13:41:19.862Z,24.77
2022-09-01T13:46:23.892Z,24.82
2022-09-01T13:51:28.014Z,25.18
2022-09-01T13:56:32.214Z,25.26
2022-09-01T14:01:36.361Z,25.49
2022-09-01T14:06:40.514Z,25.76
2022-09-01T14:11:44.649Z,26.01
2022-09-01T14:16:48.999Z,25.37
2022-09-01T14:21:51.118Z,25.19
2022-09-01T14:26:55.221Z,25.66
2022-09-01T14:31:59.450Z,25.62
2022-09-01T14:37:03.549Z,25.57
2022-09-01T14:42:07.716Z,25.54
2022-09-01T14:47:12.500Z,25.71
2022-09-01T14:52:16.046Z,25.65
2022-09-01T14:57:38.036Z,25.52
2022-09-01T15:02:24.566Z,25.37
2022-09-01T15:07:28.509Z,25.36
2022-09-01T15:12:32.670Z,25.19
2022-09-01T15:17:36.822Z,24.53
2022-09-01T15:22:41.024Z,24.91
2022-09-01T15:27:45.187Z,24.97
2022-09-01T15:32:49.335Z,25.03
2022-09-01T15:37:53.465Z,24.99
2022-09-01T15:43:00.003Z,25.03
2022-09-01T15:48:01.777Z,24.68
2022-09-01T15:53:05.945Z,24.79
2022-09-01T15:58:10.126Z,25.85
2022-09-01T16:03:14.314Z,27.25
2022-09-01T16:08:16.529Z,27.92
2022-09-01T16:13:20.681Z,28.40
2022-09-01T16:18:23.088Z,28.13
2022-09-01T16:23:27.119Z,27.03
2022-09-01T16:28:29.411Z,27.42
2022-09-01T16:33:33.640Z,27.86
2022-09-01T16:38:37.713Z,27.84
2022-09-01T16:43:41.877Z,27.53
2022-09-01T16:48:46.041Z,26.99
2022-09-01T16:53:50.189Z,26.29
2022-09-01T16:58:52.473Z,24.74
2022-09-01T17:03:56.630Z,23.98
2022-09-01T17:09:00.782Z,23.59
2022-09-01T17:14:04.936Z,23.30
2022-09-01T17:19:09.122Z,23.14
2022-09-01T17:24:13.246Z,22.88
2022-09-01T17:29:17.444Z,22.73
2022-09-01T17:34:21.553Z,22.51
2022-09-01T17:39:25.703Z,22.34
2022-09-01T17:44:30.028Z,22.19
2022-09-01T17:49:34.044Z,22.00
2022-09-01T17:54:38.226Z,21.90
2022-09-01T17:59:42.346Z,21.80
2022-09-01T18:04:46.491Z,21.62
2022-09-01T18:09:50.688Z,21.49
2022-09-01T18:14:52.955Z,21.44
2022-09-01T18:19:57.098Z,21.24
2022-09-01T18:24:59.400Z,21.10
2022-09-01T18:30:03.498Z,21.03
2022-09-01T18:35:07.695Z,20.90
2022-09-01T18:40:09.988Z,20.78
2022-09-01T18:45:14.096Z,20.51
2022-09-01T18:50:18.259Z,20.34
2022-09-01T18:55:22.449Z,20.23
2022-09-01T19:00:30.558Z,19.99
2022-09-01T19:05:33.374Z,19.74
2022-09-01T19:10:34.924Z,19.58
2022-09-01T19:15:39.111Z,19.32
2022-09-01T19:20:43.228Z,19.04
2022-09-01T19:25:47.380Z,18.93
2022-09-01T19:30:51.630Z,18.84
2022-09-01T19:35:55.716Z,18.52
2022-09-01T19:40:59.898Z,18.42
2022-09-01T19:46:04.072Z,18.27
2022-09-01T19:51:08.198Z,18.29
2022-09-01T19:56:13.217Z,18.46
2022-09-01T20:01:16.646Z,18.47
2022-09-01T20:06:20.725Z,18.39
2022-09-01T20:11:25.174Z,18.26
2022-09-01T20:16:29.169Z,18.30
2022-09-01T20:21:33.128Z,18.21
2022-09-01T20:26:35.440Z,18.14
2022-09-01T20:31:39.542Z,17.92
2022-09-01T20:36:41.843Z,17.65
2022-09-01T20:41:46.027Z,17.44
2022-09-01T20:46:50.152Z,17.24
2022-09-01T20:51:54.301Z,17.15
2022-09-01T20:56:58.516Z,17.22
2022-09-01T21:02:02.744Z,17.07
2022-09-01T21:07:06.791Z,16.88
2022-09-01T21:12:10.954Z,16.78
2022-09-01T21:17:15.105Z,16.87
2022-09-01T21:22:22.213Z,16.82
2022-09-01T21:27:23.464Z,16.77
2022-09-01T21:32:27.594Z,16.67
2022-09-01T21:37:31.758Z,16.71
2022-09-01T21:42:35.920Z,16.78
2022-09-01T21:47:40.103Z,16.70
2022-09-01T21:52:44.243Z,16.72
2022-09-01T21:57:48.386Z,16.69
2022-09-01T22:02:52.633Z,16.58
2022-09-01T22:07:56.732Z,16.44
2022-09-01T22:13:00.913Z,16.27
2022-09-01T22:18:05.052Z,16.15
2022-09-01T22:23:07.301Z,15.92
2022-09-01T22:28:11.491Z,15.79
2022-09-01T22:33:15.640Z,15.65
2022-09-01T22:38:19.785Z,15.61
2022-09-01T22:43:23.942Z,15.46
2022-09-01T22:48:28.090Z,15.28
2022-09-01T22:53:32.302Z,15.01
2022-09-01T22:58:36.446Z,14.73
2022-09-01T23:03:40.596Z,14.45
2022-09-01T23:08:44.756Z,14.30
2022-09-01T23:13:48.894Z,14.18
2022-09-01T23:18:53.086Z,13.98
2022-09-01T23:23:58.703Z,13.97
2022-09-01T23:29:01.385Z,13.88
2022-09-01T23:34:05.552Z,13.80
2022-09-01T23:39:09.693Z,13.74
2022-09-01T23:44:13.901Z,13.70
2022-09-01T23:49:18.073Z,13.72
2022-09-01T23:54:22.171Z,13.63
2022-09-01T23:59:27.623Z,13.58
